Time,TemperatureF,DewpointF,PressureIn,WindDirection,WindDirectionDegrees,WindSpeedMPH,WindSpeedGustMPH,Humidity,HourlyPrecipIn,Conditions,Clouds,dailyrainin,SoftwareType,DateUTC
2013-01-24 00:01:00,46.8,17.0,29.67,SW,233,0.0,0.0,30,0.00,,---,0.00,VWS V14.01,2013-01-24 07:01:00,
2013-01-24 00:06:00,46.4,17.4,29.67,NW,326,0.0,0.0,31,0.00,,---,0.00,VWS V14.01,2013-01-24 07:06:00,
2013-01-24 00:11:00,46.4,17.4,29.67,ESE,121,5.4,5.4,31,0.00,,---,0.00,VWS V14.01,2013-01-24 07:11:00,
2013-01-24 00:16:00,46.2,18.0,29.67,SW,214,4.0,4.0,32,0.00,,---,0.00,VWS V14.01,2013-01-24 07:16:00,
2013-01-24 00:21:00,46.6,17.6,29.67,SW,216,3.6,3.6,31,0.00,,---,0.00,VWS V14.01,2013-01-24 07:21:00,
2013-01-24 00:26:00,46.4,18.2,29.67,WSW,248,15.0,15.0,32,0.00,,---,0.00,VWS V14.01,2013-01-24 07:26:00,
2013-01-24 00:31:00,45.3,18.6,29.67,West,280,8.3,12.8,34,0.00,,---,0.00,VWS V14.01,2013-01-24 07:31:00,
2013-01-24 00:36:00,44.4,19.8,29.67,SSW,197,15.4,15.4,37,0.00,,---,0.00,VWS V14.01,2013-01-24 07:36:00,
2013-01-24 00:41:00,44.2,20.3,29.67,South,175,12.8,12.8,38,0.00,,---,0.00,VWS V14.01,2013-01-24 07:41:00,
2013-01-24 00:46:00,44.6,20.0,29.67,SSW,204,6.3,16.8,37,0.00,,---,0.00,VWS V14.01,2013-01-24 07:46:00,
2013-01-24 00:51:00,44.8,20.1,29.67,WSW,257,8.1,8.3,37,0.00,,---,0.00,VWS V14.01,2013-01-24 07:51:00,
2013-01-24 00:56:00,44.8,20.7,29.67,SE,145,3.1,3.1,38,0.00,,---,0.00,VWS V14.01,2013-01-24 07:56:00,
2013-01-24 01:01:00,44.8,20.1,29.67,North,353,0.0,4.9,37,0.00,,---,0.00,VWS V14.01,2013-01-24 08:01:00,
2013-01-24 01:06:00,44.8,20.1,29.67,WSW,239,0.0,5.4,37,0.00,,---,0.00,VWS V14.01,2013-01-24 08:06:00,
2013-01-24 01:11:00,44.8,20.1,29.67,South,186,5.8,8.3,37,0.00,,---,0.00,VWS V14.01,2013-01-24 08:11:00,
2013-01-24 01:16:00,44.6,20.0,29.67,West,275,5.4,5.4,37,0.00,,---,0.00,VWS V14.01,2013-01-24 08:16:00,
2013-01-24 01:21:00,44.4,20.4,29.67,NW,315,2.7,5.4,38,0.00,,---,0.00,VWS V14.01,2013-01-24 08:21:00,
2013-01-24 01:26:00,44.1,20.1,29.67,SW,224,6.3,8.1,38,0.00,,---,0.00,VWS V14.01,2013-01-24 08:26:00,
2013-01-24 01:31:00,43.7,19.8,29.67,South,181,0.0,2.7,38,0.00,,---,0.00,VWS V14.01,2013-01-24 08:31:00,
2013-01-24 01:36:00,43.5,19.6,29.67,SE,144,4.9,4.9,38,0.00,,---,0.00,VWS V14.01,2013-01-24 08:36:00,
2013-01-24 01:41:00,43.2,19.9,29.67,SW,216,3.6,5.8,39,0.00,,---,0.00,VWS V14.01,2013-01-24 08:41:00,
2013-01-24 01:46:00,43.0,19.7,29.67,South,171,3.1,3.1,39,0.00,,---,0.00,VWS V14.01,2013-01-24 08:46:00,
2013-01-24 01:51:00,42.8,19.6,29.64,SSW,194,0.0,0.0,39,0.00,,---,0.00,VWS V14.01,2013-01-24 08:51:00,
2013-01-24 01:56:00,42.6,20.0,29.64,SSW,197,4.9,4.9,40,0.00,,---,0.00,VWS V14.01,2013-01-24 08:56:00,
2013-01-24 02:01:00,42.6,20.0,29.64,SSE,161,3.6,3.6,40,0.00,,---,0.00,VWS V14.01,2013-01-24 09:01:00,
2013-01-24 02:06:00,42.6,20.0,29.64,South,189,0.0,2.7,40,0.00,,---,0.00,VWS V14.01,2013-01-24 09:06:00,
2013-01-24 02:11:00,42.4,19.8,29.64,SSE,158,3.6,4.5,40,0.00,,---,0.00,VWS V14.01,2013-01-24 09:11:00,
2013-01-24 02:16:00,42.8,20.2,29.64,SSE,157,5.4,5.4,40,0.00,,---,0.00,VWS V14.01,2013-01-24 09:16:00,
2013-01-24 02:21:00,43.0,20.3,29.67,SSE,166,8.1,8.1,40,0.00,,---,0.00,VWS V14.01,2013-01-24 09:21:00,
2013-01-24 02:26:00,43.3,20.6,29.67,SE,144,8.1,10.5,40,0.00,,---,0.00,VWS V14.01,2013-01-24 09:26:00,
2013-01-24 02:31:00,43.2,21.1,29.67,SSE,162,10.5,10.5,41,0.00,,---,0.00,VWS V14.01,2013-01-24 09:31:00,
2013-01-24 02:36:00,43.0,20.9,29.67,SSE,165,5.8,6.3,41,0.00,,---,0.00,VWS V14.01,2013-01-24 09:36:00,
2013-01-24 02:41:00,43.0,21.5,29.67,SSE,165,4.0,8.1,42,0.00,,---,0.00,VWS V14.01,2013-01-24 09:41:00,
2013-01-24 02:46:00,42.8,21.3,29.67,West,274,4.0,4.0,42,0.00,,---,0.00,VWS V14.01,2013-01-24 09:46:00,
2013-01-24 02:51:00,42.6,21.7,29.64,SE,136,5.4,6.3,43,0.00,,---,0.00,VWS V14.01,2013-01-24 09:51:00,
2013-01-24 02:56:00,42.6,21.7,29.64,SE,145,12.3,12.3,43,0.00,,---,0.00,VWS V14.01,2013-01-24 09:56:00,
2013-01-24 03:01:00,42.4,22.1,29.64,South,169,3.1,4.0,44,0.00,,---,0.00,VWS V14.01,2013-01-24 10:01:00,
2013-01-24 03:06:00,42.1,22.3,29.67,SSW,198,5.8,8.3,45,0.00,,---,0.00,VWS V14.01,2013-01-24 10:06:00,
2013-01-24 03:11:00,42.4,22.6,29.67,SSE,154,8.3,8.3,45,0.00,,---,0.00,VWS V14.01,2013-01-24 10:11:00,
2013-01-24 03:16:00,42.4,22.6,29.67,South,181,7.6,8.3,45,0.00,,---,0.00,VWS V14.01,2013-01-24 10:16:00,
2013-01-24 03:21:00,42.4,22.6,29.67,SSE,152,5.8,5.8,45,0.00,,---,0.00,VWS V14.01,2013-01-24 10:21:00,
2013-01-24 03:26:00,42.4,22.6,29.67,SE,145,0.0,4.0,45,0.00,,---,0.00,VWS V14.01,2013-01-24 10:26:00,
2013-01-24 03:31:00,42.3,22.5,29.67,SSW,200,5.8,6.3,45,0.00,,---,0.00,VWS V14.01,2013-01-24 10:31:00,
2013-01-24 03:36:00,42.3,22.5,29.64,SSE,152,4.9,6.3,45,0.00,,---,0.00,VWS V14.01,2013-01-24 10:36:00,
2013-01-24 03:41:00,42.3,22.5,29.64,SE,136,7.6,7.6,45,0.00,,---,0.00,VWS V14.01,2013-01-24 10:41:00,
2013-01-24 03:46:00,42.3,22.5,29.64,SW,214,0.0,7.6,45,0.00,,---,0.00,VWS V14.01,2013-01-24 10:46:00,
2013-01-24 03:51:00,42.3,22.5,29.67,South,169,4.9,7.6,45,0.00,,---,0.00,VWS V14.01,2013-01-24 10:51:00,
2013-01-24 03:56:00,42.1,22.3,29.67,SSW,203,6.3,6.3,45,0.00,,---,0.00,VWS V14.01,2013-01-24 10:56:00,
2013-01-24 04:01:00,42.1,22.3,29.67,WSW,254,12.8,12.8,45,0.00,,---,0.00,VWS V14.01,2013-01-24 11:01:00,
2013-01-24 04:06:00,42.3,22.5,29.64,West,274,8.3,8.3,45,0.00,,---,0.00,VWS V14.01,2013-01-24 11:06:00,
2013-01-24 04:11:00,42.1,22.8,29.64,South,187,4.9,8.1,46,0.00,,---,0.00,VWS V14.01,2013-01-24 11:11:00,
2013-01-24 04:16:00,42.1,22.3,29.64,SSW,209,5.4,13.2,45,0.00,,---,0.00,VWS V14.01,2013-01-24 11:16:00,
2013-01-24 04:21:00,41.7,22.5,29.67,WNW,300,6.3,8.1,46,0.00,,---,0.00,VWS V14.01,2013-01-24 11:21:00,
2013-01-24 04:26:00,41.7,23.0,29.67,South,170,3.1,4.0,47,0.00,,---,0.00,VWS V14.01,2013-01-24 11:26:00,
2013-01-24 04:31:00,41.5,23.3,29.67,WSW,256,6.3,7.6,48,0.00,,---,0.00,VWS V14.01,2013-01-24 11:31:00,
2013-01-24 04:36:00,41.4,23.2,29.64,SW,216,4.9,9.6,48,0.00,,---,0.00,VWS V14.01,2013-01-24 11:36:00,
2013-01-24 04:41:00,41.4,22.7,29.64,SSW,210,7.6,7.6,47,0.00,,---,0.00,VWS V14.01,2013-01-24 11:41:00,
2013-01-24 04:46:00,41.5,22.8,29.64,SW,231,8.3,8.3,47,0.00,,---,0.00,VWS V14.01,2013-01-24 11:46:00,
2013-01-24 04:51:00,41.4,23.2,29.67,West,280,4.0,6.3,48,0.00,,---,0.00,VWS V14.01,2013-01-24 11:51:00,
2013-01-24 04:56:00,41.4,22.7,29.67,West,272,5.4,8.1,47,0.00,,---,0.00,VWS V14.01,2013-01-24 11:56:00,
2013-01-24 05:01:00,41.5,23.3,29.67,SSW,200,6.3,8.3,48,0.00,,---,0.00,VWS V14.01,2013-01-24 12:01:00,
2013-01-24 05:06:00,41.2,23.0,29.67,SW,219,5.8,5.8,48,0.00,,---,0.00,VWS V14.01,2013-01-24 12:06:00,
2013-01-24 05:11:00,41.0,22.8,29.67,SSW,196,6.3,8.1,48,0.00,,---,0.00,VWS V14.01,2013-01-24 12:11:00,
2013-01-24 05:16:00,41.0,22.8,29.67,WSW,248,9.6,12.8,48,0.00,,---,0.00,VWS V14.01,2013-01-24 12:16:00,
2013-01-24 05:21:00,41.2,23.0,29.67,WNW,299,0.0,3.6,48,0.00,,---,0.00,VWS V14.01,2013-01-24 12:21:00,
2013-01-24 05:26:00,41.2,22.5,29.67,SW,230,4.9,4.9,47,0.00,,---,0.00,VWS V14.01,2013-01-24 12:26:00,
2013-01-24 05:31:00,41.2,22.0,29.67,SSE,165,0.0,3.6,46,0.00,,---,0.00,VWS V14.01,2013-01-24 12:31:00,
2013-01-24 05:36:00,41.2,22.0,29.67,WNW,291,2.7,5.4,46,0.00,,---,0.00,VWS V14.01,2013-01-24 12:36:00,
2013-01-24 05:41:00,41.0,21.8,29.67,NW,305,3.1,3.6,46,0.00,,---,0.00,VWS V14.01,2013-01-24 12:41:00,
2013-01-24 05:46:00,41.0,21.8,29.67,SW,228,0.0,3.1,46,0.00,,---,0.00,VWS V14.01,2013-01-24 12:46:00,
2013-01-24 05:51:00,41.4,20.0,29.67,SW,227,4.9,8.7,42,0.00,,---,0.00,VWS V14.01,2013-01-24 12:51:00,
2013-01-24 05:56:00,42.4,20.4,29.67,WSW,244,2.7,4.9,41,0.00,,---,0.00,VWS V14.01,2013-01-24 12:56:00,
2013-01-24 06:01:00,42.3,20.8,29.67,SSW,204,3.1,5.8,42,0.00,,---,0.00,VWS V14.01,2013-01-24 13:01:00,
2013-01-24 06:06:00,42.1,20.1,29.67,SW,218,17.9,17.9,41,0.00,,---,0.00,VWS V14.01,2013-01-24 13:06:00,
2013-01-24 06:11:00,42.3,20.3,29.67,SW,229,10.1,10.1,41,0.00,,---,0.00,VWS V14.01,2013-01-24 13:11:00,
2013-01-24 06:16:00,42.4,20.4,29.67,SW,236,8.7,13.2,41,0.00,,---,0.00,VWS V14.01,2013-01-24 13:16:00,
2013-01-24 06:21:00,42.4,19.8,29.67,WSW,249,2.7,5.4,40,0.00,,---,0.00,VWS V14.01,2013-01-24 13:21:00,
2013-01-24 06:26:00,42.1,20.1,29.67,West,267,8.7,8.7,41,0.00,,---,0.00,VWS V14.01,2013-01-24 13:26:00,
2013-01-24 06:31:00,41.7,20.3,29.67,NW,306,8.1,8.1,42,0.00,,---,0.00,VWS V14.01,2013-01-24 13:31:00,
2013-01-24 06:36:00,41.5,20.2,29.67,WSW,252,5.8,5.8,42,0.00,,---,0.00,VWS V14.01,2013-01-24 13:36:00,
2013-01-24 06:41:00,41.0,21.3,29.67,West,275,5.4,11.0,45,0.00,,---,0.00,VWS V14.01,2013-01-24 13:41:00,
2013-01-24 06:46:00,40.5,22.3,29.67,WSW,245,4.0,12.3,48,0.00,,---,0.00,VWS V14.01,2013-01-24 13:46:00,
2013-01-24 06:51:00,39.9,22.3,29.67,West,262,4.0,8.1,49,0.00,,---,0.00,VWS V14.01,2013-01-24 13:51:00,
2013-01-24 06:56:00,39.9,22.3,29.67,West,277,8.3,8.7,49,0.00,,---,0.00,VWS V14.01,2013-01-24 13:56:00,
2013-01-24 07:01:00,39.9,21.8,29.67,West,261,10.1,11.0,48,0.00,,---,0.00,VWS V14.01,2013-01-24 14:01:00,
2013-01-24 07:06:00,40.3,19.6,29.67,WSW,257,17.9,17.9,43,0.00,,---,0.00,VWS V14.01,2013-01-24 14:06:00,
2013-01-24 07:11:00,41.0,19.1,29.67,WSW,252,10.5,15.0,41,0.00,,---,0.00,VWS V14.01,2013-01-24 14:11:00,
2013-01-24 07:16:00,41.0,19.1,29.67,West,277,6.3,15.0,41,0.00,,---,0.00,VWS V14.01,2013-01-24 14:16:00,
2013-01-24 07:21:00,40.8,19.0,29.67,West,260,12.8,21.5,41,0.00,,---,0.00,VWS V14.01,2013-01-24 14:21:00,
2013-01-24 07:26:00,40.6,19.4,29.67,West,267,15.9,15.9,42,0.00,,---,0.00,VWS V14.01,2013-01-24 14:26:00,
2013-01-24 07:31:00,40.5,19.2,29.67,WNW,285,8.7,8.7,42,0.00,,---,0.00,VWS V14.01,2013-01-24 14:31:00,
2013-01-24 07:36:00,40.5,19.2,29.70,WNW,287,6.3,10.5,42,0.00,,---,0.00,VWS V14.01,2013-01-24 14:36:00,
2013-01-24 07:41:00,40.3,19.6,29.70,West,275,10.5,11.0,43,0.00,,---,0.00,VWS V14.01,2013-01-24 14:41:00,
2013-01-24 07:46:00,40.3,19.6,29.70,West,272,8.3,10.5,43,0.00,,---,0.00,VWS V14.01,2013-01-24 14:46:00,
2013-01-24 07:51:00,40.3,19.6,29.70,WSW,254,7.6,10.5,43,0.00,,---,0.00,VWS V14.01,2013-01-24 14:51:00,
2013-01-24 07:56:00,39.9,19.8,29.70,WSW,239,2.7,6.3,44,0.00,,---,0.00,VWS V14.01,2013-01-24 14:56:00,
2013-01-24 08:01:00,39.7,19.6,29.70,WSW,238,6.3,6.3,44,0.00,,---,0.00,VWS V14.01,2013-01-24 15:01:00,
2013-01-24 08:06:00,39.6,20.0,29.73,WSW,254,10.1,10.1,45,0.00,,---,0.00,VWS V14.01,2013-01-24 15:06:00,
2013-01-24 08:11:00,39.4,20.3,29.73,NW,305,8.7,8.7,46,0.00,,---,0.00,VWS V14.01,2013-01-24 15:11:00,
2013-01-24 08:16:00,39.2,21.2,29.73,SW,229,10.1,10.1,48,0.00,,---,0.00,VWS V14.01,2013-01-24 15:16:00,
2013-01-24 08:21:00,39.2,21.7,29.73,WNW,299,8.3,12.8,49,0.00,,---,0.00,VWS V14.01,2013-01-24 15:21:00,
2013-01-24 08:26:00,38.8,21.8,29.73,West,268,9.6,12.3,50,0.00,,---,0.00,VWS V14.01,2013-01-24 15:26:00,
2013-01-24 08:31:00,38.7,22.6,29.73,West,268,8.7,11.0,52,0.00,,---,0.00,VWS V14.01,2013-01-24 15:31:00,
2013-01-24 08:36:00,38.1,23.0,29.76,WNW,301,5.8,5.8,54,0.00,,---,0.00,VWS V14.01,2013-01-24 15:36:00,
2013-01-24 08:41:00,37.6,23.3,29.76,WNW,287,4.0,4.0,56,0.00,,---,0.00,VWS V14.01,2013-01-24 15:41:00,
2013-01-24 08:46:00,37.4,23.1,29.76,NW,306,2.7,2.7,56,0.00,,---,0.00,VWS V14.01,2013-01-24 15:46:00,
2013-01-24 08:51:00,37.6,23.3,29.76,West,276,8.7,12.3,56,0.00,,---,0.00,VWS V14.01,2013-01-24 15:51:00,
2013-01-24 08:56:00,37.0,24.5,29.76,West,272,12.8,12.8,60,0.00,,---,0.00,VWS V14.01,2013-01-24 15:56:00,
2013-01-24 09:01:00,36.5,24.3,29.76,WSW,258,7.6,12.8,61,0.00,,---,0.00,VWS V14.01,2013-01-24 16:01:00,
2013-01-24 09:06:00,36.0,24.2,29.76,SW,226,8.7,14.1,62,0.00,,---,0.00,VWS V14.01,2013-01-24 16:06:00,
2013-01-24 09:11:00,36.1,24.4,29.76,SW,234,11.0,12.3,62,0.00,,---,0.00,VWS V14.01,2013-01-24 16:11:00,
2013-01-24 09:16:00,36.0,23.8,29.76,SW,214,7.6,12.8,61,0.00,,---,0.00,VWS V14.01,2013-01-24 16:16:00,
2013-01-24 09:21:00,36.0,23.8,29.79,WSW,249,3.1,8.1,61,0.00,,---,0.00,VWS V14.01,2013-01-24 16:21:00,
2013-01-24 09:26:00,36.3,22.6,29.79,SW,228,8.7,10.5,57,0.00,,---,0.00,VWS V14.01,2013-01-24 16:26:00,
2013-01-24 09:31:00,36.9,21.3,29.79,West,260,9.6,10.1,53,0.00,,---,0.00,VWS V14.01,2013-01-24 16:31:00,
2013-01-24 09:36:00,37.2,20.8,29.79,WSW,247,8.3,8.3,51,0.00,,---,0.00,VWS V14.01,2013-01-24 16:36:00,
2013-01-24 09:41:00,37.4,20.5,29.79,West,274,5.8,10.1,50,0.00,,---,0.00,VWS V14.01,2013-01-24 16:41:00,
2013-01-24 09:46:00,37.6,19.2,29.79,West,271,16.3,16.3,47,0.00,,---,0.00,VWS V14.01,2013-01-24 16:46:00,
2013-01-24 09:51:00,38.1,18.7,29.76,SW,219,9.2,9.2,45,0.00,,---,0.00,VWS V14.01,2013-01-24 16:51:00,
2013-01-24 09:56:00,38.3,18.3,29.76,NW,306,15.0,15.0,44,0.00,,---,0.00,VWS V14.01,2013-01-24 16:56:00,
2013-01-24 10:01:00,38.3,18.3,29.76,West,269,8.7,8.7,44,0.00,,---,0.00,VWS V14.01,2013-01-24 17:01:00,
2013-01-24 10:06:00,38.3,18.3,29.79,WNW,302,3.6,7.6,44,0.00,,---,0.00,VWS V14.01,2013-01-24 17:06:00,
2013-01-24 10:11:00,38.1,18.1,29.79,West,278,0.0,0.0,44,0.00,,---,0.00,VWS V14.01,2013-01-24 17:11:00,
2013-01-24 10:16:00,38.1,17.1,29.79,WSW,250,8.1,12.8,42,0.00,,---,0.00,VWS V14.01,2013-01-24 17:16:00,
2013-01-24 10:21:00,38.3,17.2,29.79,NW,324,6.3,6.7,42,0.00,,---,0.00,VWS V14.01,2013-01-24 17:21:00,
2013-01-24 10:26:00,38.5,16.8,29.79,WSW,244,8.7,10.5,41,0.00,,---,0.00,VWS V14.01,2013-01-24 17:26:00,
2013-01-24 10:31:00,38.5,16.8,29.79,WNW,286,5.4,5.4,41,0.00,,---,0.00,VWS V14.01,2013-01-24 17:31:00,
2013-01-24 10:36:00,38.7,17.0,29.79,WSW,237,12.8,16.3,41,0.00,,---,0.00,VWS V14.01,2013-01-24 17:36:00,
2013-01-24 10:41:00,38.8,17.2,29.79,WSW,254,6.3,8.7,41,0.00,,---,0.00,VWS V14.01,2013-01-24 17:41:00,
2013-01-24 10:46:00,39.0,17.3,29.79,West,267,9.6,9.6,41,0.00,,---,0.00,VWS V14.01,2013-01-24 17:46:00,
2013-01-24 10:51:00,39.2,17.5,29.76,SSW,211,10.1,10.1,41,0.00,,---,0.00,VWS V14.01,2013-01-24 17:51:00,
2013-01-24 10:56:00,39.4,17.7,29.76,SW,232,7.2,7.2,41,0.00,,---,0.00,VWS V14.01,2013-01-24 17:56:00,
2013-01-24 11:01:00,39.4,17.7,29.76,WSW,244,8.1,8.7,41,0.00,,---,0.00,VWS V14.01,2013-01-24 18:01:00,
2013-01-24 11:06:00,39.2,17.5,29.79,West,265,8.1,10.1,41,0.00,,---,0.00,VWS V14.01,2013-01-24 18:06:00,
2013-01-24 11:11:00,39.2,17.5,29.79,WNW,291,5.4,10.5,41,0.00,,---,0.00,VWS V14.01,2013-01-24 18:11:00,
2013-01-24 11:16:00,39.4,17.7,29.79,West,276,11.0,12.8,41,0.00,,---,0.00,VWS V14.01,2013-01-24 18:16:00,
2013-01-24 11:21:00,39.2,17.5,29.79,NW,313,8.1,11.0,41,0.00,,---,0.00,VWS V14.01,2013-01-24 18:21:00,
2013-01-24 11:26:00,38.8,17.2,29.79,West,281,8.7,8.7,41,0.00,,---,0.00,VWS V14.01,2013-01-24 18:26:00,
2013-01-24 11:31:00,38.8,17.2,29.79,WSW,248,12.8,16.8,41,0.00,,---,0.00,VWS V14.01,2013-01-24 18:31:00,
2013-01-24 11:36:00,39.2,17.5,29.79,NW,317,8.3,8.3,41,0.00,,---,0.00,VWS V14.01,2013-01-24 18:36:00,
2013-01-24 11:41:00,39.2,17.5,29.79,West,274,6.3,6.3,41,0.00,,---,0.00,VWS V14.01,2013-01-24 18:41:00,
2013-01-24 11:46:00,39.4,17.7,29.79,West,272,13.2,13.2,41,0.00,,---,0.00,VWS V14.01,2013-01-24 18:46:00,
2013-01-24 11:51:00,39.4,17.7,29.79,WNW,288,10.1,10.1,41,0.00,,---,0.00,VWS V14.01,2013-01-24 18:51:00,
2013-01-24 11:56:00,39.4,17.1,29.79,NW,304,8.3,14.5,40,0.00,,---,0.00,VWS V14.01,2013-01-24 18:56:00,
2013-01-24 12:01:00,39.6,17.2,29.79,West,263,8.7,11.0,40,0.00,,---,0.00,VWS V14.01,2013-01-24 19:01:00,
2013-01-24 12:06:00,39.6,17.2,29.79,WNW,303,2.7,10.5,40,0.00,,---,0.00,VWS V14.01,2013-01-24 19:06:00,
2013-01-24 12:11:00,39.7,17.4,29.79,West,280,7.6,14.5,40,0.00,,---,0.00,VWS V14.01,2013-01-24 19:11:00,
2013-01-24 12:16:00,39.9,17.6,29.79,WNW,303,8.7,8.7,40,0.00,,---,0.00,VWS V14.01,2013-01-24 19:16:00,
2013-01-24 12:21:00,39.9,17.6,29.79,WSW,256,8.3,8.3,40,0.00,,---,0.00,VWS V14.01,2013-01-24 19:21:00,
2013-01-24 12:26:00,40.3,17.9,29.79,WNW,287,3.6,10.5,40,0.00,,---,0.00,VWS V14.01,2013-01-24 19:26:00,
2013-01-24 12:31:00,40.3,17.9,29.79,West,270,10.1,10.1,40,0.00,,---,0.00,VWS V14.01,2013-01-24 19:31:00,
2013-01-24 12:36:00,40.3,17.9,29.79,NW,304,8.1,8.1,40,0.00,,---,0.00,VWS V14.01,2013-01-24 19:36:00,
2013-01-24 12:41:00,40.1,17.7,29.79,NW,319,11.0,11.0,40,0.00,,---,0.00,VWS V14.01,2013-01-24 19:41:00,
2013-01-24 12:46:00,39.9,17.6,29.79,WNW,298,9.2,9.2,40,0.00,,---,0.00,VWS V14.01,2013-01-24 19:46:00,
2013-01-24 12:51:00,39.6,17.2,29.79,WNW,294,10.1,10.1,40,0.00,,---,0.00,VWS V14.01,2013-01-24 19:51:00,
2013-01-24 12:56:00,39.4,17.1,29.79,NW,306,3.6,4.0,40,0.00,,---,0.00,VWS V14.01,2013-01-24 19:56:00,
2013-01-24 13:01:00,39.4,17.1,29.79,WNW,285,6.3,7.2,40,0.00,,---,0.00,VWS V14.01,2013-01-24 20:01:00,
2013-01-24 13:06:00,39.7,17.4,29.79,NW,305,6.3,7.6,40,0.00,,---,0.00,VWS V14.01,2013-01-24 20:06:00,
2013-01-24 13:11:00,39.9,17.6,29.79,WNW,303,10.5,10.5,40,0.00,,---,0.00,VWS V14.01,2013-01-24 20:11:00,
2013-01-24 13:16:00,39.7,17.4,29.79,West,268,6.7,6.7,40,0.00,,---,0.00,VWS V14.01,2013-01-24 20:16:00,
2013-01-24 13:21:00,39.7,17.4,29.79,WNW,290,2.2,3.1,40,0.00,,---,0.00,VWS V14.01,2013-01-24 20:21:00,
2013-01-24 13:26:00,39.9,17.6,29.79,WNW,302,5.8,6.3,40,0.00,,---,0.00,VWS V14.01,2013-01-24 20:26:00,
2013-01-24 13:31:00,40.5,18.1,29.79,SW,224,5.8,5.8,40,0.00,,---,0.00,VWS V14.01,2013-01-24 20:31:00,
2013-01-24 13:36:00,40.8,17.8,29.79,West,261,3.6,7.6,39,0.00,,---,0.00,VWS V14.01,2013-01-24 20:36:00,
2013-01-24 13:41:00,41.0,18.0,29.79,WNW,295,4.9,5.8,39,0.00,,---,0.00,VWS V14.01,2013-01-24 20:41:00,
2013-01-24 13:46:00,41.0,18.0,29.79,NW,314,3.6,6.3,39,0.00,,---,0.00,VWS V14.01,2013-01-24 20:46:00,
2013-01-24 13:51:00,40.8,17.8,29.79,WNW,301,8.7,8.7,39,0.00,,---,0.00,VWS V14.01,2013-01-24 20:51:00,
2013-01-24 13:56:00,40.6,17.6,29.79,WSW,246,6.3,6.3,39,0.00,,---,0.00,VWS V14.01,2013-01-24 20:56:00,
2013-01-24 14:01:00,40.5,16.9,29.79,NW,305,6.3,6.3,38,0.00,,---,0.00,VWS V14.01,2013-01-24 21:01:00,
2013-01-24 14:06:00,40.8,16.6,29.76,WNW,297,6.3,6.3,37,0.00,,---,0.00,VWS V14.01,2013-01-24 21:06:00,
2013-01-24 14:11:00,41.0,17.4,29.76,NW,311,6.3,6.3,38,0.00,,---,0.00,VWS V14.01,2013-01-24 21:11:00,
2013-01-24 14:16:00,41.2,17.5,29.76,WNW,292,5.4,7.6,38,0.00,,---,0.00,VWS V14.01,2013-01-24 21:16:00,
2013-01-24 14:21:00,41.2,17.5,29.79,WNW,294,7.2,7.2,38,0.00,,---,0.00,VWS V14.01,2013-01-24 21:21:00,
2013-01-24 14:26:00,41.4,17.7,29.79,West,277,3.6,4.0,38,0.00,,---,0.00,VWS V14.01,2013-01-24 21:26:00,
2013-01-24 14:31:00,41.7,16.8,29.79,West,262,8.7,8.7,36,0.00,,---,0.00,VWS V14.01,2013-01-24 21:31:00,
2013-01-24 14:36:00,41.7,16.8,29.79,WNW,289,5.8,11.0,36,0.00,,---,0.00,VWS V14.01,2013-01-24 21:36:00,
2013-01-24 14:41:00,41.7,16.8,29.79,SW,236,7.2,7.2,36,0.00,,---,0.00,VWS V14.01,2013-01-24 21:41:00,
2013-01-24 14:46:00,41.7,16.8,29.79,WNW,296,6.3,8.3,36,0.00,,---,0.00,VWS V14.01,2013-01-24 21:46:00,
2013-01-24 14:51:00,41.5,16.6,29.79,WNW,293,13.2,13.2,36,0.00,,---,0.00,VWS V14.01,2013-01-24 21:51:00,
2013-01-24 14:56:00,41.2,17.5,29.79,WSW,248,5.8,5.8,38,0.00,,---,0.00,VWS V14.01,2013-01-24 21:56:00,
2013-01-24 15:01:00,41.2,17.5,29.79,WNW,295,9.2,10.5,38,0.00,,---,0.00,VWS V14.01,2013-01-24 22:01:00,
2013-01-24 15:06:00,41.2,17.5,29.79,WNW,283,4.9,6.3,38,0.00,,---,0.00,VWS V14.01,2013-01-24 22:06:00,
2013-01-24 15:11:00,41.4,17.7,29.79,WNW,300,8.1,8.1,38,0.00,,---,0.00,VWS V14.01,2013-01-24 22:11:00,
2013-01-24 15:16:00,41.2,17.5,29.79,WSW,257,6.3,8.7,38,0.00,,---,0.00,VWS V14.01,2013-01-24 22:16:00,
2013-01-24 15:21:00,41.2,17.5,29.79,West,265,5.4,5.4,38,0.00,,---,0.00,VWS V14.01,2013-01-24 22:21:00,
2013-01-24 15:26:00,41.2,17.5,29.79,WNW,297,4.0,5.4,38,0.00,,---,0.00,VWS V14.01,2013-01-24 22:26:00,
2013-01-24 15:31:00,41.4,17.7,29.79,WSW,256,3.6,4.5,38,0.00,,---,0.00,VWS V14.01,2013-01-24 22:31:00,
2013-01-24 15:36:00,41.4,17.7,29.79,West,276,5.8,8.1,38,0.00,,---,0.00,VWS V14.01,2013-01-24 22:36:00,
2013-01-24 15:41:00,41.2,17.5,29.79,WNW,289,5.4,6.3,38,0.00,,---,0.00,VWS V14.01,2013-01-24 22:41:00,
2013-01-24 15:46:00,41.2,17.5,29.79,WNW,283,5.8,5.8,38,0.00,,---,0.00,VWS V14.01,2013-01-24 22:46:00,
2013-01-24 15:51:00,41.2,17.5,29.79,SW,230,7.2,7.2,38,0.00,,---,0.00,VWS V14.01,2013-01-24 22:51:00,
2013-01-24 15:56:00,41.2,17.5,29.79,WSW,258,4.9,5.4,38,0.00,,---,0.00,VWS V14.01,2013-01-24 22:56:00,
2013-01-24 16:01:00,41.2,17.5,29.79,WNW,286,5.4,5.4,38,0.00,,---,0.00,VWS V14.01,2013-01-24 23:01:00,
2013-01-24 16:06:00,41.2,17.5,29.82,West,272,7.6,7.6,38,0.00,,---,0.00,VWS V14.01,2013-01-24 23:06:00,
2013-01-24 16:11:00,41.0,16.7,29.82,WSW,239,5.4,7.6,37,0.00,,---,0.00,VWS V14.01,2013-01-24 23:11:00,
2013-01-24 16:16:00,41.2,17.5,29.82,SW,227,0.0,0.0,38,0.00,,---,0.00,VWS V14.01,2013-01-24 23:16:00,
2013-01-24 16:21:00,41.0,17.4,29.82,SW,222,3.1,3.1,38,0.00,,---,0.00,VWS V14.01,2013-01-24 23:21:00,
2013-01-24 16:26:00,41.0,17.4,29.82,SW,224,0.0,0.0,38,0.00,,---,0.00,VWS V14.01,2013-01-24 23:26:00,
2013-01-24 16:31:00,40.8,17.2,29.82,WSW,238,3.6,3.6,38,0.00,,---,0.00,VWS V14.01,2013-01-24 23:31:00,
2013-01-24 16:36:00,40.3,17.3,29.82,SW,230,0.0,0.0,39,0.00,,---,0.00,VWS V14.01,2013-01-24 23:36:00,
2013-01-24 16:41:00,39.4,16.5,29.82,SW,224,2.7,3.6,39,0.00,,---,0.00,VWS V14.01,2013-01-24 23:41:00,
2013-01-24 16:46:00,38.8,16.0,29.82,SW,222,0.0,0.0,39,0.00,,---,0.00,VWS V14.01,2013-01-24 23:46:00,
2013-01-24 16:51:00,38.3,15.5,29.82,WSW,238,0.0,0.0,39,0.00,,---,0.00,VWS V14.01,2013-01-24 23:51:00,
2013-01-24 16:56:00,37.9,15.2,29.82,WSW,244,0.0,2.7,39,0.00,,---,0.00,VWS V14.01,2013-01-24 23:56:00,
2013-01-24 17:01:00,37.8,15.0,29.82,WSW,249,0.0,0.0,39,0.00,,---,0.00,VWS V14.01,2013-01-25 00:01:00,
2013-01-24 17:06:00,37.2,15.1,29.82,WSW,249,0.0,0.0,40,0.00,,---,0.00,VWS V14.01,2013-01-25 00:06:00,
2013-01-24 17:11:00,36.9,14.8,29.82,WSW,249,0.0,0.0,40,0.00,,---,0.00,VWS V14.01,2013-01-25 00:11:00,
2013-01-24 17:16:00,36.7,15.2,29.82,WSW,246,0.0,0.0,41,0.00,,---,0.00,VWS V14.01,2013-01-25 00:16:00,
2013-01-24 17:21:00,35.8,18.5,29.82,ENE,72,4.5,4.9,49,0.00,,---,0.00,VWS V14.01,2013-01-25 00:21:00,
2013-01-24 17:26:00,34.5,19.6,29.82,East,99,3.1,3.1,54,0.00,,---,0.00,VWS V14.01,2013-01-25 00:26:00,
2013-01-24 17:31:00,33.6,20.4,29.82,ESE,108,3.1,4.0,58,0.00,,---,0.00,VWS V14.01,2013-01-25 00:31:00,
2013-01-24 17:36:00,33.3,20.5,29.82,ESE,119,3.6,3.6,59,0.00,,---,0.00,VWS V14.01,2013-01-25 00:36:00,
2013-01-24 17:41:00,33.1,20.3,29.82,ESE,114,3.6,3.6,59,0.00,,---,0.00,VWS V14.01,2013-01-25 00:41:00,
2013-01-24 17:46:00,32.9,19.8,29.82,ESE,102,2.7,3.1,58,0.00,,---,0.00,VWS V14.01,2013-01-25 00:46:00,
2013-01-24 17:51:00,32.7,19.6,29.82,East,92,4.9,4.9,58,0.00,,---,0.00,VWS V14.01,2013-01-25 00:51:00,
2013-01-24 17:56:00,32.7,19.2,29.82,East,90,0.0,0.0,57,0.00,,---,0.00,VWS V14.01,2013-01-25 00:56:00,
2013-01-24 18:01:00,32.5,19.0,29.82,East,99,0.0,0.0,57,0.00,,---,0.00,VWS V14.01,2013-01-25 01:01:00,
2013-01-24 18:06:00,32.4,19.2,29.82,SE,124,3.6,3.6,58,0.00,,---,0.00,VWS V14.01,2013-01-25 01:06:00,
2013-01-24 18:11:00,32.2,18.7,29.82,East,90,0.0,0.0,57,0.00,,---,0.00,VWS V14.01,2013-01-25 01:11:00,
2013-01-24 18:16:00,31.6,18.2,29.82,East,90,0.0,0.0,57,0.00,,---,0.00,VWS V14.01,2013-01-25 01:16:00,
2013-01-24 18:21:00,31.1,18.1,29.85,East,89,0.0,0.0,58,0.00,,---,0.00,VWS V14.01,2013-01-25 01:21:00,
2013-01-24 18:26:00,30.6,17.6,29.85,East,89,0.0,0.0,58,0.00,,---,0.00,VWS V14.01,2013-01-25 01:26:00,
2013-01-24 18:31:00,30.2,18.4,29.85,East,89,0.0,0.0,61,0.00,,---,0.00,VWS V14.01,2013-01-25 01:31:00,
2013-01-24 18:36:00,29.8,18.4,29.85,East,89,0.0,0.0,62,0.00,,---,0.00,VWS V14.01,2013-01-25 01:36:00,
2013-01-24 18:41:00,29.7,18.6,29.85,East,89,0.0,0.0,63,0.00,,---,0.00,VWS V14.01,2013-01-25 01:41:00,
2013-01-24 18:46:00,29.5,19.5,29.85,East,89,0.0,0.0,66,0.00,,---,0.00,VWS V14.01,2013-01-25 01:46:00,
2013-01-24 18:51:00,29.5,18.8,29.82,East,89,0.0,0.0,64,0.00,,---,0.00,VWS V14.01,2013-01-25 01:51:00,
2013-01-24 18:56:00,29.5,19.5,29.82,East,89,0.0,0.0,66,0.00,,---,0.00,VWS V14.01,2013-01-25 01:56:00,
2013-01-24 19:01:00,29.3,18.6,29.82,East,89,0.0,0.0,64,0.00,,---,0.00,VWS V14.01,2013-01-25 02:01:00,
2013-01-24 19:06:00,29.1,18.5,29.85,East,89,0.0,0.0,64,0.00,,---,0.00,VWS V14.01,2013-01-25 02:06:00,
2013-01-24 19:11:00,28.9,18.3,29.85,East,89,0.0,0.0,64,0.00,,---,0.00,VWS V14.01,2013-01-25 02:11:00,
2013-01-24 19:16:00,28.8,18.5,29.85,East,89,0.0,0.0,65,0.00,,---,0.00,VWS V14.01,2013-01-25 02:16:00,
2013-01-24 19:21:00,28.4,18.1,29.85,East,89,0.0,0.0,65,0.00,,---,0.00,VWS V14.01,2013-01-25 02:21:00,
2013-01-24 19:26:00,28.0,17.5,29.85,East,89,0.0,0.0,64,0.00,,---,0.00,VWS V14.01,2013-01-25 02:26:00,
2013-01-24 19:31:00,28.0,17.1,29.85,East,89,0.0,0.0,63,0.00,,---,0.00,VWS V14.01,2013-01-25 02:31:00,
2013-01-24 19:36:00,27.9,16.9,29.85,West,265,0.0,4.0,63,0.00,,---,0.00,VWS V14.01,2013-01-25 02:36:00,
2013-01-24 19:41:00,27.9,17.3,29.85,West,263,0.0,3.1,64,0.00,,---,0.00,VWS V14.01,2013-01-25 02:41:00,
2013-01-24 19:46:00,27.7,16.7,29.85,West,263,0.0,0.0,63,0.00,,---,0.00,VWS V14.01,2013-01-25 02:46:00,
2013-01-24 19:51:00,27.5,16.6,29.85,SW,228,4.0,4.0,63,0.00,,---,0.00,VWS V14.01,2013-01-25 02:51:00,
2013-01-24 19:56:00,27.1,15.9,29.85,WSW,246,3.1,4.0,62,0.00,,---,0.00,VWS V14.01,2013-01-25 02:56:00,
2013-01-24 20:01:00,27.1,15.9,29.85,West,275,4.0,4.0,62,0.00,,---,0.00,VWS V14.01,2013-01-25 03:01:00,
2013-01-24 20:06:00,27.0,15.7,29.85,West,275,0.0,0.0,62,0.00,,---,0.00,VWS V14.01,2013-01-25 03:06:00,
2013-01-24 20:11:00,27.0,15.3,29.85,West,275,2.2,2.2,61,0.00,,---,0.00,VWS V14.01,2013-01-25 03:11:00,
2013-01-24 20:16:00,27.0,16.1,29.85,West,266,0.0,0.0,63,0.00,,---,0.00,VWS V14.01,2013-01-25 03:16:00,
2013-01-24 20:21:00,27.0,16.1,29.85,West,268,4.0,4.0,63,0.00,,---,0.00,VWS V14.01,2013-01-25 03:21:00,
2013-01-24 20:26:00,26.8,15.5,29.85,WSW,253,0.0,0.0,62,0.00,,---,0.00,VWS V14.01,2013-01-25 03:26:00,
2013-01-24 20:31:00,26.6,15.4,29.85,WSW,254,0.0,0.0,62,0.00,,---,0.00,VWS V14.01,2013-01-25 03:31:00,
2013-01-24 20:36:00,26.6,15.4,29.85,WSW,254,0.0,0.0,62,0.00,,---,0.00,VWS V14.01,2013-01-25 03:36:00,
2013-01-24 20:41:00,26.4,15.6,29.85,WSW,258,0.0,0.0,63,0.00,,---,0.00,VWS V14.01,2013-01-25 03:41:00,
2013-01-24 20:46:00,26.4,15.6,29.85,WSW,257,0.0,0.0,63,0.00,,---,0.00,VWS V14.01,2013-01-25 03:46:00,
2013-01-24 20:51:00,26.4,15.6,29.85,West,259,0.0,0.0,63,0.00,,---,0.00,VWS V14.01,2013-01-25 03:51:00,
2013-01-24 20:56:00,26.1,15.2,29.85,West,271,2.7,4.9,63,0.00,,---,0.00,VWS V14.01,2013-01-25 03:56:00,
2013-01-24 21:00:00,26.1,15.6,29.85,West,265,3.6,5.4,64,0.00,,---,0.00,VWS V14.01,2013-01-25 04:00:00,
2013-01-24 21:05:00,26.1,15.9,29.85,WSW,244,4.0,5.4,65,0.00,,---,0.00,VWS V14.01,2013-01-25 04:05:00,
2013-01-24 21:11:00,25.9,15.8,29.85,WSW,252,4.0,5.4,65,0.00,,---,0.00,VWS V14.01,2013-01-25 04:11:00,
2013-01-24 21:15:00,25.9,15.8,29.85,WSW,238,5.8,6.3,65,0.00,,---,0.00,VWS V14.01,2013-01-25 04:15:00,
2013-01-24 21:20:00,25.9,15.8,29.82,WSW,252,3.1,4.9,65,0.00,,---,0.00,VWS V14.01,2013-01-25 04:20:00,
2013-01-24 21:25:00,26.1,15.6,29.82,WSW,256,4.0,4.0,64,0.00,,---,0.00,VWS V14.01,2013-01-25 04:25:00,
2013-01-24 21:30:00,26.1,15.6,29.82,West,280,5.8,5.8,64,0.00,,---,0.00,VWS V14.01,2013-01-25 04:30:00,
2013-01-24 21:35:00,25.7,15.2,29.82,WSW,244,3.1,5.4,64,0.00,,---,0.00,VWS V14.01,2013-01-25 04:35:00,
2013-01-24 21:40:00,25.5,15.1,29.82,West,278,2.7,3.6,64,0.00,,---,0.00,VWS V14.01,2013-01-25 04:40:00,
2013-01-24 21:45:00,25.5,15.1,29.82,WNW,291,0.0,0.0,64,0.00,,---,0.00,VWS V14.01,2013-01-25 04:45:00,
2013-01-24 21:50:00,25.3,14.9,29.85,West,268,3.6,5.8,64,0.00,,---,0.00,VWS V14.01,2013-01-25 04:50:00,
2013-01-24 21:55:00,25.0,14.5,29.85,WSW,255,3.1,5.4,64,0.00,,---,0.00,VWS V14.01,2013-01-25 04:55:00,
2013-01-24 22:00:00,24.8,14.7,29.85,WSW,246,4.0,6.3,65,0.00,,---,0.00,VWS V14.01,2013-01-25 05:00:00,
2013-01-24 22:01:00,24.8,14.7,29.85,SW,235,5.4,5.4,65,0.00,,---,0.00,VWS V14.01,2013-01-25 05:01:00,
2013-01-24 22:03:00,24.8,14.7,29.82,SW,232,4.9,5.4,65,0.00,,---,0.00,VWS V14.01,2013-01-25 05:03:00,
2013-01-24 22:08:00,24.8,15.1,29.82,West,265,3.6,4.9,66,0.00,,---,0.00,VWS V14.01,2013-01-25 05:08:00,
2013-01-24 22:13:00,25.3,15.6,29.82,WSW,255,3.6,3.6,66,0.00,,---,0.00,VWS V14.01,2013-01-25 05:13:00,
2013-01-24 22:18:00,25.7,15.9,29.85,West,275,4.0,4.0,66,0.00,,---,0.00,VWS V14.01,2013-01-25 05:18:00,
2013-01-24 22:23:00,26.1,16.3,29.85,West,268,3.6,3.6,66,0.00,,---,0.00,VWS V14.01,2013-01-25 05:23:00,
2013-01-24 22:28:00,26.1,15.9,29.85,WSW,256,2.7,2.7,65,0.00,,---,0.00,VWS V14.01,2013-01-25 05:28:00,
2013-01-24 22:33:00,26.1,15.6,29.82,West,264,2.7,2.7,64,0.00,,---,0.00,VWS V14.01,2013-01-25 05:33:00,
2013-01-24 22:38:00,25.9,15.0,29.82,West,261,2.2,2.7,63,0.00,,---,0.00,VWS V14.01,2013-01-25 05:38:00,
2013-01-24 22:43:00,25.9,15.0,29.82,West,266,0.0,0.0,63,0.00,,---,0.00,VWS V14.01,2013-01-25 05:43:00,
2013-01-24 22:48:00,25.5,14.7,29.82,West,276,0.0,0.0,63,0.00,,---,0.00,VWS V14.01,2013-01-25 05:48:00,
2013-01-24 22:53:00,25.5,14.7,29.82,West,266,0.0,0.0,63,0.00,,---,0.00,VWS V14.01,2013-01-25 05:53:00,
2013-01-24 22:58:00,25.3,14.5,29.82,WSW,246,0.0,0.0,63,0.00,,---,0.00,VWS V14.01,2013-01-25 05:58:00,
2013-01-24 23:03:00,25.3,14.9,29.82,WSW,246,0.0,0.0,64,0.00,,---,0.00,VWS V14.01,2013-01-25 06:03:00,
2013-01-24 23:08:00,25.5,15.1,29.82,WSW,246,0.0,0.0,64,0.00,,---,0.00,VWS V14.01,2013-01-25 06:08:00,
2013-01-24 23:13:00,25.7,15.6,29.82,WSW,247,0.0,0.0,65,0.00,,---,0.00,VWS V14.01,2013-01-25 06:13:00,
2013-01-24 23:18:00,26.1,15.9,29.82,West,268,0.0,0.0,65,0.00,,---,0.00,VWS V14.01,2013-01-25 06:18:00,
2013-01-24 23:23:00,26.1,15.6,29.82,West,268,0.0,0.0,64,0.00,,---,0.00,VWS V14.01,2013-01-25 06:23:00,
2013-01-24 23:28:00,26.1,15.6,29.82,West,273,0.0,0.0,64,0.00,,---,0.00,VWS V14.01,2013-01-25 06:28:00,
2013-01-24 23:33:00,26.1,15.6,29.82,NW,305,0.0,0.0,64,0.00,,---,0.00,VWS V14.01,2013-01-25 06:33:00,
2013-01-24 23:38:00,26.2,15.7,29.82,West,277,0.0,0.0,64,0.00,,---,0.00,VWS V14.01,2013-01-25 06:38:00,
2013-01-24 23:43:00,26.2,15.7,29.82,West,277,0.0,0.0,64,0.00,,---,0.00,VWS V14.01,2013-01-25 06:43:00,
2013-01-24 23:48:00,26.1,15.6,29.82,West,277,0.0,0.0,64,0.00,,---,0.00,VWS V14.01,2013-01-25 06:48:00,
2013-01-24 23:53:00,25.9,15.4,29.82,West,277,0.0,0.0,64,0.00,,---,0.00,VWS V14.01,2013-01-25 06:53:00,
2013-01-24 23:58:00,25.9,15.8,29.82,West,277,0.0,0.0,65,0.00,,---,0.00,VWS V14.01,2013-01-25 06:58:00,